createdAt,value
2019-04-11T00:00:50.562Z,100825.27
2019-04-11T00:03:41.688Z,100822.95
2019-04-11T00:06:31.839Z,100825.83
2019-04-11T00:09:22.696Z,100829.77
2019-04-11T00:12:12.746Z,100833.81
2019-04-11T00:15:02.620Z,100827.51
2019-04-11T00:17:54.385Z,100827.67
2019-04-11T00:20:44.828Z,100833.59
2019-04-11T00:23:34.713Z,100831.61
2019-04-11T00:26:26.332Z,100829.81
2019-04-11T00:29:16.456Z,100833.36
2019-04-11T00:32:09.059Z,100828.69
2019-04-11T00:34:57.454Z,100826.92
2019-04-11T00:37:47.479Z,100833.48
2019-04-11T00:40:39.550Z,100838.53
2019-04-11T00:43:35.859Z,100843.80
2019-04-11T00:46:20.660Z,100844.51
2019-04-11T00:49:10.482Z,100838.34
2019-04-11T00:52:00.376Z,100840.48
2019-04-11T00:54:51.153Z,100836.21
2019-04-11T00:57:41.330Z,100839.44
2019-04-11T01:00:31.329Z,100841.58
2019-04-11T01:03:22.095Z,100840.79
2019-04-11T01:06:12.236Z,100846.98
2019-04-11T01:09:02.387Z,100841.17
2019-04-11T01:11:54.319Z,100843.70
2019-04-11T01:14:44.302Z,100845.73
2019-04-11T01:17:34.230Z,100849.22
2019-04-11T01:20:23.855Z,100847.09
2019-04-11T01:23:13.708Z,100855.66
2019-04-11T01:26:05.219Z,100854.63
2019-04-11T01:28:55.468Z,100855.50
2019-04-11T01:31:46.436Z,100852.98
2019-04-11T01:34:37.126Z,100852.84
2019-04-11T01:37:28.059Z,100858.08
2019-04-11T01:40:17.927Z,100860.91
2019-04-11T01:43:08.119Z,100868.48
2019-04-11T01:45:58.703Z,100861.14
2019-04-11T01:48:53.814Z,100867.00
2019-04-11T01:51:43.752Z,100869.34
2019-04-11T01:54:35.470Z,100874.55
2019-04-11T01:57:25.786Z,100878.25
2019-04-11T02:00:32.489Z,100873.89
2019-04-11T02:03:35.038Z,100873.93
2019-04-11T02:06:25.732Z,100880.31
2019-04-11T02:09:16.009Z,100877.67
2019-04-11T02:12:05.896Z,100883.53
2019-04-11T02:14:57.803Z,100888.72
2019-04-11T02:17:48.800Z,100891.28
2019-04-11T02:20:39.147Z,100896.63
2019-04-11T02:23:39.383Z,100900.15
2019-04-11T02:26:31.579Z,100899.34
2019-04-11T02:29:21.865Z,100897.38
2019-04-11T02:32:12.281Z,100902.73
2019-04-11T02:35:06.453Z,100909.75
2019-04-11T02:37:56.626Z,100910.44
2019-04-11T02:40:47.986Z,100908.63
2019-04-11T02:43:40.086Z,100911.98
2019-04-11T02:46:41.216Z,100916.66
2019-04-11T02:49:23.463Z,100913.17
2019-04-11T02:52:13.456Z,100920.01
2019-04-11T02:55:03.626Z,100921.87
2019-04-11T02:57:57.004Z,100919.72
2019-04-11T03:00:47.104Z,100918.72
2019-04-11T03:03:37.853Z,100919.06
2019-04-11T03:06:30.984Z,100916.25
2019-04-11T03:09:22.066Z,100924.60
2019-04-11T03:12:13.331Z,100922.80
2019-04-11T03:15:21.297Z,100925.80
2019-04-11T03:17:59.179Z,100921.81
2019-04-11T03:20:54.844Z,100930.51
2019-04-11T03:23:39.764Z,100928.35
2019-04-11T03:26:30.991Z,100923.83
2019-04-11T03:29:21.773Z,100926.69
2019-04-11T03:32:51.288Z,100939.41
2019-04-11T03:38:18.416Z,100938.59
2019-04-11T03:41:04.329Z,100944.73
2019-04-11T03:43:53.057Z,100944.94
2019-04-11T03:46:48.204Z,100950.11
2019-04-11T03:49:34.283Z,100949.95
2019-04-11T03:52:17.225Z,100947.78
2019-04-11T03:55:08.580Z,100953.98
2019-04-11T03:58:01.209Z,100956.30
2019-04-11T04:00:53.412Z,100958.99
2019-04-11T04:03:44.697Z,100961.00
2019-04-11T04:06:37.205Z,100960.48
2019-04-11T04:09:29.301Z,100957.31
2019-04-11T04:12:20.870Z,100967.84
2019-04-11T04:15:37.837Z,100968.16
2019-04-11T04:18:47.757Z,100974.52
2019-04-11T04:21:47.121Z,100979.34
2019-04-11T04:24:40.054Z,100978.86
2019-04-11T04:27:30.540Z,100985.69
2019-04-11T04:30:21.946Z,100989.02
2019-04-11T04:33:13.111Z,100989.37
2019-04-11T04:36:07.689Z,100994.86
2019-04-11T04:38:57.057Z,100995.03
2019-04-11T04:41:58.996Z,100996.05
2019-04-11T04:44:42.897Z,100994.69
2019-04-11T04:47:44.181Z,100998.88
2019-04-11T04:50:24.442Z,101011.73
2019-04-11T04:53:16.169Z,101006.06
2019-04-11T04:56:06.742Z,101010.73
2019-04-11T04:58:58.510Z,101011.58
2019-04-11T05:01:48.575Z,101020.92
2019-04-11T05:04:40.395Z,101025.10
2019-04-11T05:07:34.129Z,101025.28
2019-04-11T05:10:22.148Z,101030.12
2019-04-11T05:13:13.112Z,101029.96
2019-04-11T05:16:09.614Z,101039.47
2019-04-11T05:18:54.746Z,101038.46
2019-04-11T05:21:45.661Z,101036.12
2019-04-11T05:24:36.835Z,101034.11
2019-04-11T05:27:26.700Z,101044.61
2019-04-11T05:30:16.802Z,101042.40
2019-04-11T05:33:06.564Z,101038.69
2019-04-11T05:35:56.523Z,101049.34
2019-04-11T05:38:46.507Z,101044.98
2019-04-11T05:41:35.898Z,101043.42
2019-04-11T05:44:25.460Z,101043.50
2019-04-11T05:47:18.499Z,101052.95
2019-04-11T05:50:15.839Z,101048.95
2019-04-11T05:53:05.813Z,101052.52
2019-04-11T05:55:57.342Z,101046.30
2019-04-11T05:58:47.735Z,101058.16
2019-04-11T06:01:42.591Z,101050.61
2019-04-11T06:04:40.484Z,101057.80
2019-04-11T06:07:42.175Z,101058.27
2019-04-11T06:10:37.062Z,101054.83
2019-04-11T06:13:54.491Z,101060.47
2019-04-11T06:16:50.748Z,101062.48
2019-04-11T06:19:53.487Z,101064.39
2019-04-11T06:22:49.740Z,101058.91
2019-04-11T06:25:49.832Z,101064.44
2019-04-11T06:28:40.012Z,101063.50
2019-04-11T06:31:47.916Z,101068.48
2019-04-11T06:34:42.426Z,101075.77
2019-04-11T06:38:06.180Z,101073.42
2019-04-11T06:41:04.746Z,101082.30
2019-04-11T06:44:20.043Z,101079.03
2019-04-11T06:47:27.694Z,101073.11
2019-04-11T06:50:37.597Z,101080.98
2019-04-11T06:53:32.162Z,101069.04
2019-04-11T06:56:39.697Z,101074.92
2019-04-11T06:59:40.679Z,101078.00
2019-04-11T07:02:32.210Z,101075.04
2019-04-11T07:05:24.718Z,101072.93
2019-04-11T07:08:16.067Z,101072.30
2019-04-11T07:11:08.004Z,101069.30
2019-04-11T07:14:23.269Z,101079.55
2019-04-11T07:17:31.679Z,101080.46
2019-04-11T07:20:43.586Z,101081.92
2019-04-11T07:23:51.705Z,101081.72
2019-04-11T07:26:44.086Z,101081.12
2019-04-11T07:29:46.661Z,101079.11
2019-04-11T07:32:36.612Z,101076.40
2019-04-11T07:35:45.133Z,101082.60
2019-04-11T07:38:41.697Z,101083.73
2019-04-11T07:41:50.007Z,101085.77
2019-04-11T07:44:40.840Z,101090.73
2019-04-11T07:47:41.403Z,101087.70
2019-04-11T07:50:31.382Z,101090.96
2019-04-11T07:53:22.032Z,101084.16
2019-04-11T07:56:29.434Z,101087.86
2019-04-11T07:59:34.946Z,101086.52
2019-04-11T08:02:47.787Z,101085.35
2019-04-11T08:05:52.257Z,101080.31
2019-04-11T08:09:00.374Z,101079.05
2019-04-11T08:11:56.237Z,101073.53
2019-04-11T08:15:02.172Z,101085.98
2019-04-11T08:17:52.184Z,101082.98
2019-04-11T08:21:00.132Z,101086.09
2019-04-11T08:23:52.048Z,101090.72
2019-04-11T08:27:16.041Z,101091.19
2019-04-11T08:30:07.169Z,101096.75
2019-04-11T08:32:58.837Z,101093.61
2019-04-11T08:35:59.763Z,101092.70
2019-04-11T08:38:49.312Z,101105.30
2019-04-11T08:41:51.733Z,101100.88
2019-04-11T08:44:43.825Z,101102.33
2019-04-11T08:47:47.491Z,101101.56
2019-04-11T08:50:36.653Z,101101.52
2019-04-11T08:53:44.838Z,101104.22
2019-04-11T08:56:36.839Z,101109.21
2019-04-11T08:59:54.521Z,101116.56
2019-04-11T09:02:49.616Z,101115.59
2019-04-11T09:06:15.144Z,101121.52
2019-04-11T09:09:25.327Z,101110.88
2019-04-11T09:12:15.102Z,101110.78
2019-04-11T09:15:26.650Z,101110.65
2019-04-11T09:18:17.674Z,101111.34
2019-04-11T09:21:39.000Z,101115.23
2019-04-11T09:24:41.486Z,101116.40
2019-04-11T09:27:55.608Z,101111.75
2019-04-11T09:31:01.061Z,101109.27
2019-04-11T09:34:02.247Z,101109.37
2019-04-11T09:37:09.485Z,101109.62
2019-04-11T09:40:09.890Z,101099.91
2019-04-11T09:43:15.676Z,101108.46
2019-04-11T09:46:24.612Z,101102.80
2019-04-11T09:49:27.075Z,101116.56
2019-04-11T09:52:24.830Z,101116.62
2019-04-11T09:55:26.579Z,101110.92
2019-04-11T09:58:27.370Z,101123.72
2019-04-11T10:01:39.188Z,101122.36
2019-04-11T10:04:29.953Z,101125.44
2019-04-11T10:07:48.114Z,101121.55
2019-04-11T10:10:57.490Z,101117.20
2019-04-11T10:13:57.321Z,101121.26
2019-04-11T10:17:06.683Z,101124.61
2019-04-11T10:20:00.357Z,101121.81
2019-04-11T10:23:18.843Z,101122.13
2019-04-11T10:26:09.728Z,101121.77
2019-04-11T10:29:19.232Z,101124.34
2019-04-11T10:32:09.152Z,101125.31
2019-04-11T10:35:19.899Z,101120.30
2019-04-11T10:38:09.365Z,101123.66
2019-04-11T10:41:08.352Z,101126.66
2019-04-11T10:43:59.596Z,101129.84
2019-04-11T10:47:01.982Z,101124.41
2019-04-11T10:50:20.175Z,101124.33
2019-04-11T10:53:10.932Z,101117.95
2019-04-11T10:56:11.061Z,101126.98
2019-04-11T10:59:02.778Z,101121.71
2019-04-11T11:02:13.652Z,101123.94
2019-04-11T11:05:05.261Z,101129.12
2019-04-11T11:07:59.961Z,101128.54
2019-04-11T11:10:50.666Z,101120.88
2019-04-11T11:14:00.356Z,101121.87
2019-04-11T11:17:06.576Z,101126.73
2019-04-11T11:20:38.403Z,101121.23
2019-04-11T11:24:00.858Z,101119.42
2019-04-11T11:26:54.542Z,101119.13
2019-04-11T11:30:04.423Z,101122.40
2019-04-11T11:32:54.131Z,101124.58
2019-04-11T11:36:10.742Z,101123.80
2019-04-11T11:39:19.373Z,101128.92
2019-04-11T11:42:26.695Z,101126.86
2019-04-11T11:45:27.732Z,101126.19
2019-04-11T11:48:36.605Z,101130.25
2019-04-11T11:51:49.796Z,101127.84
2019-04-11T11:54:49.520Z,101138.93
2019-04-11T11:58:14.339Z,101130.56
2019-04-11T12:01:05.838Z,101131.59
2019-04-11T12:04:26.183Z,101133.48
2019-04-11T12:07:18.852Z,101127.26
2019-04-11T12:10:32.335Z,101122.88
2019-04-11T12:13:45.735Z,101118.77
2019-04-11T12:16:59.503Z,101122.67
2019-04-11T12:20:06.414Z,101122.09
2019-04-11T12:22:52.603Z,101124.39
2019-04-11T12:25:45.171Z,101127.95
2019-04-11T12:28:59.667Z,101126.07
2019-04-11T12:31:52.526Z,101130.83
2019-04-11T12:34:47.322Z,101124.52
2019-04-11T12:37:43.388Z,101133.46
2019-04-11T12:41:07.416Z,101134.31
2019-04-11T12:44:15.364Z,101126.33
2019-04-11T12:47:16.897Z,101121.89
2019-04-11T12:50:31.018Z,101129.00
2019-04-11T12:53:22.713Z,101113.92
2019-04-11T12:56:43.830Z,101120.83
2019-04-11T12:59:33.724Z,101121.80
2019-04-11T13:02:41.568Z,101120.91
2019-04-11T13:05:32.450Z,101119.47
2019-04-11T13:08:52.150Z,101122.27
2019-04-11T13:11:43.635Z,101121.34
2019-04-11T13:14:53.099Z,101125.68
2019-04-11T13:17:45.568Z,101125.27
2019-04-11T13:21:07.210Z,101119.66
2019-04-11T13:24:15.019Z,101118.25
2019-04-11T13:27:12.963Z,101117.75
2019-04-11T13:30:20.709Z,101120.69
2019-04-11T13:33:13.921Z,101124.00
2019-04-11T13:36:28.368Z,101126.62
2019-04-11T13:39:18.267Z,101128.20
2019-04-11T13:42:30.360Z,101125.82
2019-04-11T13:45:20.268Z,101128.11
2019-04-11T13:48:32.036Z,101129.59
2019-04-11T13:51:32.256Z,101129.53
2019-04-11T13:54:38.142Z,101132.50
2019-04-11T13:57:47.334Z,101125.25
2019-04-11T14:00:42.594Z,101120.68
2019-04-11T14:04:00.227Z,101125.83
2019-04-11T14:06:51.513Z,101119.90
2019-04-11T14:09:45.182Z,101122.53
2019-04-11T14:12:35.126Z,101125.16
2019-04-11T14:15:25.212Z,101124.31
2019-04-11T14:18:27.841Z,101123.95
2019-04-11T14:21:19.542Z,101127.66
2019-04-11T14:24:32.451Z,101124.66
2019-04-11T14:27:25.557Z,101120.28
2019-04-11T14:30:33.012Z,101118.33
2019-04-11T14:33:27.026Z,101127.69
2019-04-11T14:36:37.362Z,101126.82
2019-04-11T14:39:29.727Z,101135.27
2019-04-11T14:42:46.091Z,101126.34
2019-04-11T14:46:06.873Z,101129.42
2019-04-11T14:49:01.517Z,101125.19
2019-04-11T14:52:09.600Z,101133.20
2019-04-11T14:55:01.444Z,101128.94
2019-04-11T14:58:01.360Z,101137.16
2019-04-11T15:00:53.867Z,101134.36
2019-04-11T15:03:56.594Z,101133.73
2019-04-11T15:06:50.154Z,101131.74
2019-04-11T15:09:47.306Z,101128.64
2019-04-11T15:12:38.411Z,101135.28
2019-04-11T15:15:51.974Z,101137.98
2019-04-11T15:18:51.164Z,101133.94
2019-04-11T15:22:11.777Z,101132.37
2019-04-11T15:25:20.565Z,101132.77
2019-04-11T15:28:19.706Z,101134.12
2019-04-11T15:31:18.500Z,101133.94
2019-04-11T15:34:18.507Z,101135.06
2019-04-11T15:37:28.135Z,101139.85
2019-04-11T15:40:37.074Z,101145.25
2019-04-11T15:43:44.831Z,101142.11
2019-04-11T15:46:36.149Z,101137.77
2019-04-11T15:49:41.326Z,101138.67
2019-04-11T15:52:31.209Z,101141.58
2019-04-11T15:55:58.104Z,101140.52
2019-04-11T15:58:51.881Z,101131.51
2019-04-11T16:02:01.007Z,101141.77
2019-04-11T16:05:12.341Z,101137.48
2019-04-11T16:08:24.346Z,101137.42
2019-04-11T16:11:31.738Z,101137.53
2019-04-11T16:14:34.519Z,101139.50
2019-04-11T16:17:57.853Z,101141.77
2019-04-11T16:20:50.878Z,101145.30
2019-04-11T16:24:05.221Z,101146.14
2019-04-11T16:27:09.788Z,101143.84
2019-04-11T16:30:03.753Z,101150.69
2019-04-11T16:33:05.676Z,101152.14
2019-04-11T16:36:00.787Z,101162.31
2019-04-11T16:39:08.134Z,101161.87
2019-04-11T16:42:03.644Z,101161.84
2019-04-11T16:45:24.739Z,101161.72
2019-04-11T16:48:14.210Z,101168.97
2019-04-11T16:51:05.881Z,101157.06
2019-04-11T16:53:54.931Z,101159.66
2019-04-11T16:56:44.932Z,101159.78
2019-04-11T16:59:35.294Z,101164.78
2019-04-11T17:02:24.951Z,101166.02
2019-04-11T17:05:19.986Z,101166.91
2019-04-11T17:08:27.769Z,101170.16
2019-04-11T17:11:21.064Z,101170.44
2019-04-11T17:14:12.016Z,101166.99
2019-04-11T17:17:02.015Z,101165.64
2019-04-11T17:19:51.573Z,101162.59
2019-04-11T17:22:41.469Z,100910.28
2019-04-11T17:25:31.263Z,101167.81
2019-04-11T17:28:23.100Z,101168.11
2019-04-11T17:31:12.875Z,101171.31
2019-04-11T17:34:05.443Z,101172.16
2019-04-11T17:36:54.497Z,101175.28
2019-04-11T17:39:44.395Z,101181.90
2019-04-11T17:42:36.831Z,101185.95
2019-04-11T17:45:25.495Z,100902.03
2019-04-11T17:48:14.847Z,101192.75
2019-04-11T17:51:05.764Z,101199.11
2019-04-11T17:53:55.741Z,101199.70
2019-04-11T17:56:45.514Z,101201.23
2019-04-11T17:59:35.657Z,101204.62
2019-04-11T18:02:25.565Z,101206.50
2019-04-11T18:05:17.184Z,101211.69
2019-04-11T18:08:07.987Z,101207.66
2019-04-11T18:10:58.093Z,101216.14
2019-04-11T18:13:49.159Z,101215.81
2019-04-11T18:16:39.795Z,101223.35
2019-04-11T18:19:29.559Z,101220.58
2019-04-11T18:22:19.153Z,101227.36
2019-04-11T18:25:08.626Z,101228.08
2019-04-11T18:27:58.424Z,101231.90
2019-04-11T18:30:48.839Z,101232.28
2019-04-11T18:33:38.051Z,101229.33
2019-04-11T18:36:31.790Z,101237.80
2019-04-11T18:39:19.827Z,101243.63
2019-04-11T18:42:09.360Z,101238.95
2019-04-11T18:45:00.571Z,101246.81
2019-04-11T18:47:51.663Z,101245.64
2019-04-11T18:50:41.944Z,101257.63
2019-04-11T18:53:31.779Z,101250.33
2019-04-11T18:56:21.418Z,101257.64
2019-04-11T18:59:11.295Z,101253.91
2019-04-11T19:02:01.343Z,101267.20
2019-04-11T19:04:51.701Z,101265.92
2019-04-11T19:07:42.985Z,101270.70
2019-04-11T19:10:33.500Z,101269.63
2019-04-11T19:13:23.661Z,101267.81
2019-04-11T19:16:13.771Z,101268.39
2019-04-11T19:19:04.932Z,101274.34
2019-04-11T19:21:54.754Z,101275.39
2019-04-11T19:24:44.738Z,101273.06
2019-04-11T19:27:34.566Z,101280.00
2019-04-11T19:30:26.342Z,101274.34
2019-04-11T19:33:19.140Z,101275.86
2019-04-11T19:36:10.024Z,101283.16
2019-04-11T19:39:01.225Z,101275.05
2019-04-11T19:41:52.765Z,101274.07
2019-04-11T19:44:42.970Z,101285.81
2019-04-11T19:47:32.534Z,101278.61
2019-04-11T19:50:22.212Z,101278.98
2019-04-11T19:53:11.892Z,101269.48
2019-04-11T19:56:20.680Z,101280.08
2019-04-11T19:59:10.496Z,101275.57
2019-04-11T20:02:00.224Z,101275.13
2019-04-11T20:04:49.721Z,101279.73
2019-04-11T20:07:39.560Z,101276.00
2019-04-11T20:10:30.887Z,101280.53
2019-04-11T20:13:22.480Z,101284.91
2019-04-11T20:16:13.235Z,101284.57
2019-04-11T20:19:03.096Z,101285.92
2019-04-11T20:21:52.987Z,101282.72
2019-04-11T20:24:45.743Z,101280.99
2019-04-11T20:27:33.824Z,101282.70
2019-04-11T20:30:25.388Z,101282.05
2019-04-11T20:33:26.352Z,101289.93
2019-04-11T20:36:08.103Z,101288.44
2019-04-11T20:38:58.553Z,101287.09
2019-04-11T20:41:48.516Z,101288.64
2019-04-11T20:44:38.210Z,101291.70
2019-04-11T20:47:29.559Z,101292.20
2019-04-11T20:50:20.217Z,101292.73
2019-04-11T20:53:13.031Z,101289.51
2019-04-11T20:56:01.420Z,101286.31
2019-04-11T20:58:50.272Z,101290.91
2019-04-11T21:01:40.380Z,101289.28
2019-04-11T21:04:31.300Z,101288.83
2019-04-11T21:07:21.919Z,101290.63
2019-04-11T21:10:12.107Z,101291.27
2019-04-11T21:13:01.820Z,101290.27
2019-04-11T21:15:51.786Z,101294.66
2019-04-11T21:18:42.211Z,101283.91
2019-04-11T21:21:32.013Z,101282.19
2019-04-11T21:24:21.955Z,101282.00
2019-04-11T21:27:12.037Z,101282.34
2019-04-11T21:30:02.419Z,101285.17
2019-04-11T21:32:52.543Z,101283.97
2019-04-11T21:35:42.610Z,101286.80
2019-04-11T21:38:32.912Z,101281.22
2019-04-11T21:41:23.115Z,101281.08
2019-04-11T21:44:13.331Z,101276.84
2019-04-11T21:47:03.688Z,101280.38
2019-04-11T21:49:54.760Z,101281.41
2019-04-11T21:52:44.338Z,101281.22
2019-04-11T21:55:34.608Z,101277.37
2019-04-11T21:58:24.416Z,101272.30
2019-04-11T22:01:17.493Z,101274.30
2019-04-11T22:04:09.640Z,101271.94
2019-04-11T22:07:00.883Z,101279.73
2019-04-11T22:09:50.760Z,101275.42
2019-04-11T22:12:40.665Z,101279.78
2019-04-11T22:15:30.642Z,101269.89
2019-04-11T22:18:20.765Z,101267.74
2019-04-11T22:21:13.004Z,101273.79
2019-04-11T22:24:02.339Z,101279.36
2019-04-11T22:26:52.094Z,101274.34
2019-04-11T22:29:41.758Z,101271.16
2019-04-11T22:32:31.869Z,101275.69
2019-04-11T22:35:21.710Z,101274.91
2019-04-11T22:38:11.484Z,101274.09
2019-04-11T22:41:02.024Z,101277.43
2019-04-11T22:43:52.868Z,101270.37
2019-04-11T22:46:42.649Z,101268.02
2019-04-11T22:49:32.602Z,101268.86
2019-04-11T22:52:22.363Z,101273.91
2019-04-11T22:55:12.323Z,101278.94
2019-04-11T22:58:02.138Z,101274.12
2019-04-11T23:00:52.042Z,101276.41
2019-04-11T23:03:47.761Z,101275.39
2019-04-11T23:06:37.640Z,101269.73
2019-04-11T23:09:27.770Z,101278.44
2019-04-11T23:12:17.914Z,101276.09
2019-04-11T23:15:09.025Z,101274.60
2019-04-11T23:17:58.647Z,101278.48
2019-04-11T23:20:48.264Z,101280.53
2019-04-11T23:23:37.748Z,101276.70
2019-04-11T23:26:27.670Z,101277.89
2019-04-11T23:29:17.263Z,101281.42
2019-04-11T23:32:07.451Z,101275.91
2019-04-11T23:34:57.071Z,101277.55
2019-04-11T23:37:51.794Z,101278.59
2019-04-11T23:40:41.712Z,101279.30
2019-04-11T23:43:31.674Z,101284.03
2019-04-11T23:46:22.091Z,101281.34
2019-04-11T23:49:12.054Z,101284.37
2019-04-11T23:52:01.994Z,101278.84
2019-04-11T23:54:51.204Z,101277.36
2019-04-11T23:57:40.954Z,101289.95
